Time;durP1;ratioP1;P1;durP2;ratioP2;P2;SDS_P1;SDS_P2;PMS_P1;PMS_P2;Temp;Humidity;BMP_temperature;BMP_pressure;BME280_temperature;BME280_humidity;BME280_pressure;Samples;Min_cycle;Max_cycle;Signal;HPM_P1;HPM_P2
2023/12/23 00:00:07;;;;;;;6.10;3.22;;;7.40;99.90;;;;;;5012399;28;20046;-46
2023/12/23 00:02:34;;;;;;;6.68;3.75;;;7.20;99.90;;;;;;5021175;28;20057;-50
2023/12/23 00:05:01;;;;;;;3.53;2.80;;;7.10;99.90;;;;;;5017923;28;20113;-47
2023/12/23 00:07:28;;;;;;;4.30;3.13;;;7.00;99.90;;;;;;5021266;28;20105;-51
2023/12/23 00:09:55;;;;;;;5.93;2.63;;;6.90;99.90;;;;;;5019749;28;20942;-46
2023/12/23 00:12:22;;;;;;;4.22;2.50;;;6.90;99.90;;;;;;5005005;28;20056;-50
2023/12/23 00:14:49;;;;;;;5.65;2.22;;;6.80;99.90;;;;;;5017752;28;20545;-50
2023/12/23 00:17:16;;;;;;;4.72;2.47;;;6.80;99.90;;;;;;5012493;28;20052;-48
2023/12/23 00:19:43;;;;;;;3.03;2.10;;;6.80;99.90;;;;;;5015777;28;20045;-51
2023/12/23 00:22:10;;;;;;;3.83;2.25;;;6.80;99.90;;;;;;5011116;28;20088;-49
2023/12/23 00:24:37;;;;;;;3.50;1.85;;;6.70;99.90;;;;;;5014653;28;20103;-50
2023/12/23 00:27:05;;;;;;;2.40;2.03;;;6.70;99.90;;;;;;5017475;28;20156;-47
2023/12/23 00:29:33;;;;;;;3.78;1.90;;;6.70;99.90;;;;;;5012337;28;20099;-47
2023/12/23 00:31:59;;;;;;;3.13;2.20;;;6.70;99.90;;;;;;5016063;28;20053;-54
2023/12/23 00:34:27;;;;;;;3.78;2.10;;;6.60;99.90;;;;;;5006590;28;20116;-54
2023/12/23 00:36:55;;;;;;;2.00;1.80;;;6.60;99.90;;;;;;5016342;28;20040;-51
2023/12/23 00:39:22;;;;;;;3.38;1.80;;;6.50;99.90;;;;;;5010610;28;20095;-47
2023/12/23 00:41:49;;;;;;;2.70;2.00;;;6.50;99.90;;;;;;5013093;28;20038;-54
2023/12/23 00:44:16;;;;;;;2.13;1.60;;;6.40;99.90;;;;;;5017928;28;20049;-47
2023/12/23 00:46:44;;;;;;;3.90;1.75;;;6.40;99.90;;;;;;5016824;28;20043;-49
2023/12/23 00:49:11;;;;;;;1.60;1.50;;;6.40;99.90;;;;;;5013217;28;20065;-50
2023/12/23 00:51:38;;;;;;;2.85;1.80;;;6.30;99.90;;;;;;5010512;28;20045;-49
2023/12/23 00:54:05;;;;;;;3.15;1.80;;;6.30;99.90;;;;;;5013548;28;20139;-48
2023/12/23 00:56:32;;;;;;;2.53;1.67;;;6.30;99.90;;;;;;5015655;28;20116;-47
2023/12/23 00:59:00;;;;;;;2.22;1.33;;;6.30;99.90;;;;;;5013867;28;20042;-48
2023/12/23 01:01:27;;;;;;;1.70;1.60;;;6.20;99.90;;;;;;5012348;28;20519;-51
2023/12/23 01:03:54;;;;;;;2.70;1.90;;;6.20;99.90;;;;;;5013539;28;20115;-52
2023/12/23 01:06:22;;;;;;;2.35;1.60;;;6.20;99.90;;;;;;5019438;28;20542;-48
2023/12/23 01:08:49;;;;;;;2.45;1.67;;;6.20;99.90;;;;;;5011023;28;20584;-52
2023/12/23 01:11:16;;;;;;;2.08;1.60;;;6.20;99.90;;;;;;5011981;28;20425;-48
2023/12/23 01:13:43;;;;;;;1.67;1.40;;;6.20;99.90;;;;;;5016513;28;20124;-50
2023/12/23 01:16:10;;;;;;;3.15;1.50;;;6.20;99.90;;;;;;5010554;28;20049;-52
2023/12/23 01:18:37;;;;;;;1.90;1.65;;;6.20;99.90;;;;;;5016482;28;20601;-47
2023/12/23 01:21:04;;;;;;;1.60;1.50;;;6.20;99.90;;;;;;5005488;28;20137;-53
2023/12/23 01:23:31;;;;;;;3.10;1.58;;;6.20;99.90;;;;;;5019373;28;20041;-50
2023/12/23 01:25:58;;;;;;;2.58;1.88;;;6.20;99.90;;;;;;5011950;28;20532;-49
2023/12/23 01:28:25;;;;;;;3.38;1.30;;;6.10;99.90;;;;;;5013362;28;20084;-54
2023/12/23 01:30:52;;;;;;;1.77;1.60;;;6.10;99.90;;;;;;5017495;28;20112;-50
2023/12/23 01:33:20;;;;;;;1.92;1.50;;;6.10;99.90;;;;;;5013499;28;20602;-51
2023/12/23 01:35:47;;;;;;;2.40;1.30;;;6.20;99.90;;;;;;5009433;28;20107;-49
2023/12/23 01:38:14;;;;;;;3.25;1.38;;;6.10;99.90;;;;;;5008117;28;20065;-49
2023/12/23 01:40:41;;;;;;;1.83;1.20;;;6.10;99.90;;;;;;5036482;28;20050;-53
2023/12/23 01:43:08;;;;;;;4.13;1.10;;;6.10;99.90;;;;;;5008204;28;20054;-51
2023/12/23 01:45:35;;;;;;;1.98;1.20;;;6.10;99.90;;;;;;5012396;28;20171;-52
2023/12/23 01:48:04;;;;;;;2.00;1.30;;;6.10;99.90;;;;;;5012758;28;20041;-46
2023/12/23 01:50:31;;;;;;;1.73;1.25;;;6.10;99.90;;;;;;5009904;28;20049;-47
2023/12/23 01:53:00;;;;;;;3.53;1.30;;;6.10;99.90;;;;;;5016227;28;20099;-52
2023/12/23 01:55:28;;;;;;;3.70;1.48;;;6.10;99.90;;;;;;5012609;28;20042;-52
2023/12/23 01:57:56;;;;;;;1.90;1.23;;;6.00;99.90;;;;;;5009061;28;20137;-50
2023/12/23 02:00:23;;;;;;;1.48;1.10;;;6.00;99.90;;;;;;5008593;28;20034;-47
2023/12/23 02:02:50;;;;;;;2.42;1.20;;;5.90;99.90;;;;;;5013966;28;20490;-46
2023/12/23 02:05:17;;;;;;;1.67;1.10;;;5.90;99.90;;;;;;5011978;28;20511;-51
2023/12/23 02:07:45;;;;;;;1.98;1.10;;;5.80;99.90;;;;;;5018205;28;20049;-54
2023/12/23 02:10:13;;;;;;;2.00;1.30;;;5.80;99.90;;;;;;5016484;28;20296;-46
2023/12/23 02:13:08;;;;;;;3.30;1.08;;;5.70;99.90;;;;;;5011080;28;20111;-49
2023/12/23 02:15:43;;;;;;;2.67;1.00;;;5.70;99.90;;;;;;5008808;28;20429;-48
2023/12/23 02:18:10;;;;;;;1.15;0.90;;;5.70;99.90;;;;;;5012413;28;20034;-53
2023/12/23 02:20:40;;;;;;;1.08;0.90;;;5.70;99.90;;;;;;5008734;28;20076;-50
2023/12/23 02:23:07;;;;;;;1.52;0.98;;;5.70;99.90;;;;;;5016869;28;20042;-48
2023/12/23 02:25:34;;;;;;;1.48;0.90;;;5.70;99.90;;;;;;5014117;28;20149;-48
2023/12/23 02:28:07;;;;;;;2.30;0.90;;;5.70;99.90;;;;;;5016255;28;20045;-50
2023/12/23 02:30:38;;;;;;;1.45;1.00;;;5.70;99.90;;;;;;5018919;28;20077;-48
2023/12/23 02:33:05;;;;;;;2.30;1.25;;;5.70;99.90;;;;;;5015142;28;20064;-51
2023/12/23 02:35:32;;;;;;;3.70;1.27;;;5.70;99.90;;;;;;5011571;28;20092;-47
2023/12/23 02:38:00;;;;;;;1.58;1.00;;;5.70;99.90;;;;;;5012428;28;20045;-45
2023/12/23 02:40:27;;;;;;;1.48;0.85;;;5.60;99.90;;;;;;5017783;28;20407;-49
2023/12/23 02:42:54;;;;;;;3.15;1.05;;;5.60;99.90;;;;;;5017916;28;20124;-49
2023/12/23 02:45:21;;;;;;;1.95;0.82;;;5.70;99.90;;;;;;5009339;28;20075;-53
2023/12/23 02:47:48;;;;;;;3.40;0.98;;;5.70;99.90;;;;;;5013993;28;20045;-47
2023/12/23 02:50:16;;;;;;;3.10;1.30;;;5.70;99.90;;;;;;5007177;28;20050;-50
2023/12/23 02:52:43;;;;;;;1.90;1.08;;;5.70;99.90;;;;;;5019786;28;20223;-48
2023/12/23 02:55:10;;;;;;;3.50;1.10;;;5.60;99.90;;;;;;5012157;28;20038;-53
2023/12/23 02:57:37;;;;;;;2.15;1.02;;;5.70;99.90;;;;;;5019978;28;20056;-49
2023/12/23 03:00:04;;;;;;;2.95;1.33;;;5.70;99.90;;;;;;5012933;28;20053;-47
2023/12/23 03:02:31;;;;;;;3.72;1.30;;;5.70;99.90;;;;;;5011266;28;20048;-53
2023/12/23 03:04:58;;;;;;;2.80;1.10;;;5.70;99.90;;;;;;5017449;28;20225;-47
2023/12/23 03:07:25;;;;;;;1.65;1.00;;;5.70;99.90;;;;;;5011086;28;20041;-48
2023/12/23 03:09:52;;;;;;;3.50;1.10;;;5.70;99.90;;;;;;5016587;28;20525;-50
2023/12/23 03:12:19;;;;;;;3.25;1.08;;;5.70;99.90;;;;;;5007065;28;20415;-46
2023/12/23 03:14:46;;;;;;;2.33;1.05;;;5.70;99.90;;;;;;5014027;28;20049;-55
2023/12/23 03:17:13;;;;;;;1.65;1.10;;;5.70;99.90;;;;;;5015011;28;20048;-46
2023/12/23 03:19:42;;;;;;;2.45;1.00;;;5.80;99.90;;;;;;5009268;28;20053;-45
2023/12/23 03:22:09;;;;;;;2.45;0.80;;;5.80;99.90;;;;;;5016171;28;20058;-55
2023/12/23 03:24:36;;;;;;;1.95;0.90;;;5.80;99.90;;;;;;5008554;28;20205;-52
2023/12/23 03:27:03;;;;;;;2.08;1.00;;;5.80;99.90;;;;;;5014184;28;20518;-45
2023/12/23 03:29:30;;;;;;;2.42;0.90;;;5.80;99.90;;;;;;5013387;28;20061;-53
2023/12/23 03:31:56;;;;;;;2.92;1.00;;;5.80;99.90;;;;;;5013362;28;20471;-51
2023/12/23 03:34:23;;;;;;;2.08;0.85;;;5.80;99.90;;;;;;5014456;28;20074;-52
2023/12/23 03:36:51;;;;;;;1.48;0.90;;;5.90;99.90;;;;;;5014877;28;20132;-52
2023/12/23 03:39:18;;;;;;;1.50;0.80;;;5.90;99.90;;;;;;5010273;28;20133;-48
2023/12/23 03:41:45;;;;;;;2.80;0.70;;;5.90;99.90;;;;;;5016235;28;20080;-47
2023/12/23 03:44:12;;;;;;;1.25;0.80;;;5.90;99.90;;;;;;5015911;28;20038;-48
2023/12/23 03:46:39;;;;;;;2.20;1.27;;;5.80;99.90;;;;;;5014092;28;20062;-51
2023/12/23 03:49:06;;;;;;;1.38;0.80;;;5.80;99.90;;;;;;5013612;28;20483;-50
2023/12/23 03:51:33;;;;;;;1.55;0.70;;;5.90;99.90;;;;;;5012467;28;20490;-49
2023/12/23 03:54:00;;;;;;;0.90;0.70;;;5.90;99.90;;;;;;5013492;28;20052;-48
2023/12/23 03:56:26;;;;;;;1.67;0.80;;;5.90;99.90;;;;;;5015348;28;20104;-50
2023/12/23 03:58:54;;;;;;;1.77;0.85;;;5.90;99.90;;;;;;5012337;28;20438;-48
2023/12/23 04:01:21;;;;;;;0.95;0.77;;;5.80;99.90;;;;;;5011738;28;20137;-47
2023/12/23 04:03:48;;;;;;;2.45;0.90;;;5.90;99.90;;;;;;5015839;28;20039;-49
2023/12/23 04:06:16;;;;;;;2.53;0.90;;;5.80;99.90;;;;;;5013784;28;20073;-47
2023/12/23 04:08:43;;;;;;;3.17;0.95;;;5.80;99.90;;;;;;5012749;28;20404;-50
2023/12/23 04:11:10;;;;;;;1.23;0.82;;;5.90;99.90;;;;;;5008532;28;20073;-53
2023/12/23 04:13:38;;;;;;;2.35;0.90;;;5.90;99.90;;;;;;5014048;28;20132;-50
2023/12/23 04:16:06;;;;;;;2.60;0.90;;;5.90;99.90;;;;;;5015536;28;20045;-47
2023/12/23 04:18:33;;;;;;;1.90;1.00;;;5.90;99.90;;;;;;5011145;28;20115;-48
2023/12/23 04:21:00;;;;;;;2.83;0.80;;;5.90;99.90;;;;;;5013347;28;20037;-51
2023/12/23 04:23:27;;;;;;;1.15;0.80;;;5.90;99.90;;;;;;5014909;28;20034;-52
2023/12/23 04:25:54;;;;;;;1.48;0.70;;;5.90;99.90;;;;;;5011239;28;20076;-49
2023/12/23 04:28:24;;;;;;;2.17;0.80;;;5.90;99.90;;;;;;5010781;28;20053;-56
2023/12/23 04:30:56;;;;;;;1.42;0.82;;;5.90;99.90;;;;;;5016195;28;20046;-55
2023/12/23 04:33:24;;;;;;;2.78;1.10;;;5.90;99.90;;;;;;5011810;28;20037;-55
2023/12/23 04:35:53;;;;;;;2.80;0.80;;;5.80;99.90;;;;;;5013472;28;20124;-51
2023/12/23 04:38:20;;;;;;;1.58;0.73;;;5.80;99.90;;;;;;5009573;28;20057;-50
2023/12/23 04:40:48;;;;;;;1.60;0.70;;;5.80;99.90;;;;;;5015860;28;20045;-53
2023/12/23 04:43:15;;;;;;;4.53;1.02;;;5.70;99.90;;;;;;5032363;28;20061;-50
2023/12/23 04:45:42;;;;;;;2.83;0.95;;;5.70;99.90;;;;;;5014281;28;20057;-51
2023/12/23 04:48:09;;;;;;;3.55;0.73;;;5.70;99.90;;;;;;5013546;28;20140;-49
2023/12/23 04:50:37;;;;;;;0.82;0.63;;;5.70;99.90;;;;;;5015042;28;20061;-49
2023/12/23 04:53:04;;;;;;;2.08;0.90;;;5.60;99.90;;;;;;5015488;28;20111;-48
2023/12/23 04:55:31;;;;;;;1.77;0.90;;;5.60;99.90;;;;;;5008235;28;20113;-47
2023/12/23 04:57:58;;;;;;;3.30;1.10;;;5.60;99.90;;;;;;5016138;28;20049;-49
2023/12/23 05:00:25;;;;;;;1.77;0.90;;;5.70;99.90;;;;;;5010976;28;20049;-48
2023/12/23 05:02:52;;;;;;;1.67;1.00;;;5.60;99.90;;;;;;5016601;28;20179;-49
2023/12/23 05:05:19;;;;;;;4.35;1.23;;;5.60;99.90;;;;;;5015415;28;20396;-52
2023/12/23 05:07:48;;;;;;;1.67;1.02;;;5.60;99.90;;;;;;5022771;28;20045;-47
2023/12/23 05:10:18;;;;;;;4.05;1.40;;;5.50;99.90;;;;;;5015483;28;20068;-49
2023/12/23 05:12:46;;;;;;;3.45;1.20;;;5.60;99.90;;;;;;5010751;28;20045;-48
2023/12/23 05:15:13;;;;;;;2.13;1.00;;;5.50;99.90;;;;;;5013436;28;20601;-50
2023/12/23 05:17:40;;;;;;;1.10;0.90;;;5.50;99.90;;;;;;5010543;28;20061;-50
2023/12/23 05:20:08;;;;;;;3.10;1.10;;;5.60;99.90;;;;;;5012398;28;20472;-48
2023/12/23 05:22:35;;;;;;;2.63;1.00;;;5.60;99.90;;;;;;5017855;28;20058;-49
2023/12/23 05:25:04;;;;;;;4.68;1.30;;;5.60;99.90;;;;;;5008524;28;20157;-48
2023/12/23 05:27:31;;;;;;;2.13;1.10;;;5.60;99.90;;;;;;5009347;28;20042;-47
2023/12/23 05:29:58;;;;;;;1.67;0.82;;;5.70;99.90;;;;;;5014422;28;20137;-49
2023/12/23 05:32:25;;;;;;;2.30;1.10;;;5.70;99.90;;;;;;5014868;28;20038;-48
2023/12/23 05:34:56;;;;;;;4.80;1.23;;;5.70;99.90;;;;;;5014632;28;20049;-51
2023/12/23 05:37:23;;;;;;;2.22;0.95;;;5.70;99.90;;;;;;5016341;28;20440;-46
2023/12/23 05:39:51;;;;;;;2.20;1.02;;;5.70;99.90;;;;;;5012454;28;20629;-48
2023/12/23 05:42:18;;;;;;;2.67;1.17;;;5.70;99.90;;;;;;5014418;28;20434;-49
2023/12/23 05:44:45;;;;;;;1.70;1.00;;;5.80;99.90;;;;;;5016712;28;20518;-48
2023/12/23 05:47:12;;;;;;;4.40;1.48;;;5.80;99.90;;;;;;5012374;28;20107;-47
2023/12/23 05:49:39;;;;;;;2.05;1.02;;;5.80;99.90;;;;;;5018562;28;20049;-53
2023/12/23 05:52:06;;;;;;;3.17;1.00;;;5.80;99.90;;;;;;5013428;28;20055;-48
2023/12/23 05:54:33;;;;;;;3.03;1.05;;;5.90;99.90;;;;;;5018481;28;20046;-47
2023/12/23 05:57:00;;;;;;;2.80;1.05;;;5.90;99.90;;;;;;5018570;28;20073;-48
2023/12/23 05:59:27;;;;;;;2.22;1.00;;;6.00;99.90;;;;;;5014743;28;20052;-47
2023/12/23 06:01:54;;;;;;;2.75;1.00;;;6.00;99.90;;;;;;5018092;28;20394;-46
2023/12/23 06:04:21;;;;;;;2.65;1.13;;;6.10;99.90;;;;;;5016522;28;20053;-51
2023/12/23 06:06:48;;;;;;;2.78;1.08;;;6.20;99.90;;;;;;5016167;28;20053;-50
2023/12/23 06:09:15;;;;;;;1.48;1.00;;;6.40;99.90;;;;;;5017534;28;20081;-49
2023/12/23 06:11:42;;;;;;;3.33;1.30;;;6.40;99.90;;;;;;5010627;28;20135;-48
2023/12/23 06:14:09;;;;;;;8.13;1.48;;;6.50;99.90;;;;;;5012617;28;20145;-49
2023/12/23 06:16:40;;;;;;;4.57;1.35;;;6.60;99.90;;;;;;5018014;28;20494;-46
2023/12/23 06:19:07;;;;;;;2.42;1.08;;;6.60;99.90;;;;;;5017921;28;20041;-47
2023/12/23 06:21:34;;;;;;;4.38;1.27;;;6.70;99.90;;;;;;5004883;28;20045;-49
2023/12/23 06:24:01;;;;;;;3.83;1.23;;;6.70;99.90;;;;;;5016117;28;20582;-48
2023/12/23 06:26:28;;;;;;;4.10;1.33;;;6.70;99.90;;;;;;5004900;28;20455;-51
2023/12/23 06:28:55;;;;;;;4.20;1.20;;;6.80;99.90;;;;;;5013219;28;20415;-48
2023/12/23 06:31:22;;;;;;;4.95;1.33;;;6.90;99.90;;;;;;5012098;28;20502;-47
2023/12/23 06:33:49;;;;;;;3.97;1.25;;;6.80;99.90;;;;;;5011779;28;20041;-47
2023/12/23 06:36:16;;;;;;;4.75;1.30;;;6.80;99.90;;;;;;5004329;28;20042;-47
2023/12/23 06:38:43;;;;;;;3.22;1.20;;;6.90;99.90;;;;;;5017074;28;20422;-46
2023/12/23 06:41:12;;;;;;;2.05;0.95;;;6.90;99.90;;;;;;5011599;28;20210;-44
2023/12/23 06:43:39;;;;;;;4.72;1.50;;;6.90;99.90;;;;;;5018835;28;20495;-46
2023/12/23 06:46:18;;;;;;;2.80;1.15;;;7.00;99.90;;;;;;5008308;28;20076;-47
2023/12/23 06:48:45;;;;;;;1.55;0.88;;;7.00;99.90;;;;;;5013892;28;20426;-51
2023/12/23 06:51:13;;;;;;;1.85;0.98;;;7.00;99.90;;;;;;5008677;28;20050;-48
2023/12/23 06:53:40;;;;;;;1.17;0.80;;;7.00;99.90;;;;;;5018373;28;20509;-52
2023/12/23 06:56:08;;;;;;;3.38;1.15;;;7.00;99.90;;;;;;5014603;28;20144;-46
2023/12/23 06:58:35;;;;;;;3.58;1.30;;;7.00;99.90;;;;;;5014950;28;20061;-45
2023/12/23 07:01:02;;;;;;;2.35;1.00;;;7.00;99.90;;;;;;5012981;28;20127;-49
2023/12/23 07:03:29;;;;;;;2.45;1.00;;;6.90;99.90;;;;;;5012393;28;20057;-49
2023/12/23 07:05:56;;;;;;;3.22;1.02;;;6.90;99.90;;;;;;5014162;28;20042;-47
2023/12/23 07:08:24;;;;;;;2.28;0.90;;;6.90;99.90;;;;;;5008990;28;20407;-52
2023/12/23 07:10:51;;;;;;;3.78;1.08;;;7.00;99.90;;;;;;5014112;28;20124;-47
2023/12/23 07:13:18;;;;;;;2.97;1.08;;;6.90;99.90;;;;;;5007674;28;20081;-46
2023/12/23 07:15:44;;;;;;;2.45;1.10;;;6.90;99.90;;;;;;5008018;28;20057;-52
2023/12/23 07:18:11;;;;;;;4.03;1.20;;;6.80;99.90;;;;;;5013078;28;20267;-46
2023/12/23 07:20:40;;;;;;;3.65;1.23;;;6.90;99.90;;;;;;5013420;28;20310;-46
2023/12/23 07:23:07;;;;;;;5.03;1.40;;;6.80;99.90;;;;;;5004528;28;20069;-44
2023/12/23 07:25:34;;;;;;;4.25;1.80;;;6.80;99.90;;;;;;5011567;28;20052;-48
2023/12/23 07:28:01;;;;;;;4.75;1.40;;;6.90;99.90;;;;;;5015285;28;20052;-47
2023/12/23 07:30:28;;;;;;;2.58;1.38;;;6.90;99.90;;;;;;5021121;28;20038;-51
2023/12/23 07:32:55;;;;;;;4.63;1.60;;;6.90;99.90;;;;;;5011594;28;20079;-52
2023/12/23 07:35:23;;;;;;;4.00;1.50;;;7.00;99.90;;;;;;5018770;28;20149;-46
2023/12/23 07:37:50;;;;;;;4.05;1.45;;;7.00;99.90;;;;;;5006127;28;20489;-47
2023/12/23 07:40:17;;;;;;;3.83;1.70;;;7.00;99.90;;;;;;5015773;28;20183;-50
2023/12/23 07:42:44;;;;;;;3.28;1.45;;;7.00;99.90;;;;;;5015276;28;20533;-49
2023/12/23 07:45:11;;;;;;;3.38;1.58;;;7.10;99.90;;;;;;5015157;28;20057;-42
2023/12/23 07:47:39;;;;;;;2.67;1.30;;;7.10;99.90;;;;;;5009528;28;20270;-46
2023/12/23 07:50:06;;;;;;;5.70;2.00;;;7.10;99.90;;;;;;5012817;28;20072;-50
2023/12/23 07:52:33;;;;;;;7.13;1.90;;;7.10;99.90;;;;;;5014840;28;20037;-44
2023/12/23 07:55:00;;;;;;;3.15;1.33;;;7.00;99.90;;;;;;5012794;28;20435;-48
2023/12/23 07:57:27;;;;;;;3.08;1.40;;;7.10;99.90;;;;;;5016026;28;20045;-43
2023/12/23 07:59:54;;;;;;;3.53;1.48;;;7.00;99.90;;;;;;5003894;28;20045;-47
2023/12/23 08:02:21;;;;;;;4.38;1.58;;;7.10;99.90;;;;;;5006390;28;20112;-48
2023/12/23 08:04:48;;;;;;;6.45;1.30;;;7.00;99.90;;;;;;5006384;28;20045;-49
2023/12/23 08:07:15;;;;;;;3.53;1.23;;;7.00;99.90;;;;;;5008897;28;20050;-48
2023/12/23 08:09:42;;;;;;;3.92;1.20;;;7.00;99.90;;;;;;5014278;28;20037;-53
2023/12/23 08:12:09;;;;;;;3.50;1.20;;;7.00;99.90;;;;;;5014043;28;20461;-44
2023/12/23 08:14:37;;;;;;;6.05;1.52;;;7.10;99.90;;;;;;5003914;28;20438;-50
2023/12/23 08:17:04;;;;;;;4.43;1.13;;;7.10;99.90;;;;;;5007830;28;20046;-46
2023/12/23 08:19:31;;;;;;;3.05;1.33;;;7.10;99.90;;;;;;5006493;28;20096;-47
2023/12/23 08:21:58;;;;;;;3.67;1.45;;;7.00;99.90;;;;;;5015122;28;20041;-48
2023/12/23 08:24:25;;;;;;;6.85;1.52;;;7.00;99.90;;;;;;5010296;28;20124;-48
2023/12/23 08:26:54;;;;;;;4.00;1.60;;;7.10;99.90;;;;;;5014277;28;20111;-54
2023/12/23 08:29:21;;;;;;;3.22;1.20;;;7.10;99.90;;;;;;5011292;28;20065;-49
2023/12/23 08:31:48;;;;;;;3.22;1.30;;;7.10;99.90;;;;;;5015024;28;20045;-54
2023/12/23 08:34:15;;;;;;;5.20;1.30;;;7.10;99.90;;;;;;5005742;28;20053;-54
2023/12/23 08:36:43;;;;;;;3.35;1.25;;;7.20;99.90;;;;;;5010089;28;20160;-49
2023/12/23 08:39:10;;;;;;;3.75;1.23;;;7.20;99.90;;;;;;5012439;28;20140;-47
2023/12/23 08:41:38;;;;;;;3.97;1.10;;;7.30;99.90;;;;;;5012805;28;20108;-49
2023/12/23 08:44:04;;;;;;;2.88;1.30;;;7.30;99.90;;;;;;5014065;28;20060;-45
2023/12/23 08:46:32;;;;;;;3.15;1.25;;;7.30;99.90;;;;;;5007300;28;20045;-49
2023/12/23 08:49:01;;;;;;;3.83;1.23;;;7.40;99.90;;;;;;5011145;28;20041;-48
2023/12/23 08:51:31;;;;;;;3.47;1.20;;;7.40;99.90;;;;;;5013570;28;20037;-48
2023/12/23 08:53:59;;;;;;;1.92;1.08;;;7.40;99.90;;;;;;5008393;28;20049;-44
2023/12/23 08:56:26;;;;;;;3.10;1.10;;;7.50;99.90;;;;;;5015548;28;20099;-46
2023/12/23 08:58:53;;;;;;;3.65;1.33;;;7.50;99.90;;;;;;5011866;28;20179;-46
2023/12/23 09:01:22;;;;;;;3.08;1.50;;;7.50;99.90;;;;;;5013435;28;20135;-46
2023/12/23 09:03:49;;;;;;;3.83;1.45;;;7.50;99.90;;;;;;5013403;28;20579;-44
2023/12/23 09:06:17;;;;;;;3.72;1.10;;;7.60;99.90;;;;;;5006244;28;20123;-53
2023/12/23 09:08:44;;;;;;;2.17;1.10;;;7.60;99.90;;;;;;5015720;28;20049;-48
2023/12/23 09:11:11;;;;;;;2.60;1.10;;;7.70;99.90;;;;;;5016689;28;20568;-49
2023/12/23 09:13:39;;;;;;;2.05;1.20;;;7.70;99.90;;;;;;5011314;28;20128;-48
2023/12/23 09:16:06;;;;;;;2.40;1.10;;;7.80;99.90;;;;;;5007016;28;20134;-54
2023/12/23 09:18:33;;;;;;;2.95;1.00;;;7.80;99.90;;;;;;5015753;28;20094;-48
2023/12/23 09:21:00;;;;;;;2.53;1.10;;;7.80;99.90;;;;;;5006826;28;20039;-49
2023/12/23 09:23:27;;;;;;;1.65;0.80;;;7.80;99.90;;;;;;5013171;28;20046;-49
2023/12/23 09:25:54;;;;;;;3.63;1.20;;;7.80;99.90;;;;;;5013590;28;20072;-50
2023/12/23 09:28:21;;;;;;;2.42;0.90;;;7.80;99.90;;;;;;5011484;28;20058;-45
2023/12/23 09:30:48;;;;;;;2.88;1.40;;;7.80;99.90;;;;;;5021908;28;20504;-45
2023/12/23 09:33:17;;;;;;;2.30;1.00;;;7.80;99.90;;;;;;5007109;28;20054;-47
2023/12/23 09:35:44;;;;;;;6.18;1.27;;;7.80;99.90;;;;;;5015049;28;20069;-46
2023/12/23 09:38:11;;;;;;;2.85;1.00;;;7.80;99.90;;;;;;5013943;28;20656;-53
2023/12/23 09:40:38;;;;;;;3.10;1.13;;;7.70;99.90;;;;;;5015120;28;20053;-56
2023/12/23 09:43:06;;;;;;;1.95;0.93;;;7.60;99.90;;;;;;5011212;28;20060;-48
2023/12/23 09:45:35;;;;;;;2.58;1.23;;;7.60;99.90;;;;;;5012743;28;20053;-54
2023/12/23 09:48:02;;;;;;;1.05;0.82;;;7.50;99.90;;;;;;5013439;28;20562;-48
2023/12/23 09:50:29;;;;;;;2.92;1.10;;;7.50;99.90;;;;;;5009142;28;20077;-51
2023/12/23 09:52:59;;;;;;;3.47;1.00;;;7.50;99.90;;;;;;5007686;28;20046;-49
2023/12/23 09:55:29;;;;;;;3.13;1.20;;;7.60;99.90;;;;;;5004867;28;20069;-52
2023/12/23 09:57:56;;;;;;;3.78;1.15;;;7.60;99.90;;;;;;5004471;28;20053;-56
2023/12/23 10:00:23;;;;;;;2.63;0.93;;;7.60;99.90;;;;;;5010802;28;20072;-54
2023/12/23 10:02:50;;;;;;;2.63;1.00;;;7.60;99.90;;;;;;5021389;28;20076;-45
2023/12/23 10:05:18;;;;;;;3.03;0.90;;;7.60;99.90;;;;;;5014386;28;20064;-51
2023/12/23 10:07:45;;;;;;;2.13;0.90;;;7.70;99.90;;;;;;5013177;28;20058;-53
2023/12/23 10:10:12;;;;;;;3.42;1.00;;;7.70;99.90;;;;;;5014496;28;20383;-47
2023/12/23 10:12:39;;;;;;;2.33;0.70;;;7.70;99.90;;;;;;5007918;28;20053;-49
2023/12/23 10:15:06;;;;;;;1.98;0.82;;;7.80;99.90;;;;;;5014057;28;20493;-47
2023/12/23 10:17:33;;;;;;;1.27;0.80;;;7.80;99.90;;;;;;5019122;28;20053;-47
2023/12/23 10:20:01;;;;;;;3.75;0.82;;;7.80;99.90;;;;;;5014121;28;20041;-45
2023/12/23 10:22:28;;;;;;;1.08;0.70;;;7.90;99.90;;;;;;5008009;28;20045;-48
2023/12/23 10:24:57;;;;;;;1.60;0.70;;;7.90;99.90;;;;;;5015099;28;20045;-45
2023/12/23 10:27:26;;;;;;;1.38;0.80;;;7.90;99.90;;;;;;5016253;28;20049;-44
2023/12/23 10:29:55;;;;;;;0.73;0.60;;;7.90;99.90;;;;;;5007910;28;20038;-54
2023/12/23 10:32:24;;;;;;;0.82;0.63;;;7.90;99.90;;;;;;5017907;28;20081;-44
2023/12/23 10:34:59;;;;;;;1.60;0.60;;;8.00;99.90;;;;;;5011589;28;20457;-44
2023/12/23 10:37:27;;;;;;;0.95;0.60;;;8.00;99.90;;;;;;5015257;28;20118;-45
2023/12/23 10:40:11;;;;;;;0.70;0.50;;;8.00;99.90;;;;;;5011989;28;20565;-46
2023/12/23 10:42:41;;;;;;;1.20;0.65;;;8.00;99.90;;;;;;5010270;28;20561;-45
2023/12/23 10:45:10;;;;;;;0.60;0.60;;;8.10;99.90;;;;;;5008568;28;20660;-47
2023/12/23 10:47:38;;;;;;;1.00;0.68;;;8.10;99.90;;;;;;5012483;28;20137;-47
2023/12/23 10:50:07;;;;;;;1.08;0.70;;;8.20;99.90;;;;;;5011677;28;20052;-51
2023/12/23 10:52:36;;;;;;;2.22;1.00;;;8.20;99.90;;;;;;5014501;28;20502;-51
2023/12/23 10:55:04;;;;;;;0.73;0.60;;;8.30;99.90;;;;;;5012693;28;20057;-48
2023/12/23 10:57:35;;;;;;;0.95;0.70;;;8.30;99.90;;;;;;5014597;28;20053;-49
2023/12/23 11:00:03;;;;;;;1.85;0.70;;;8.20;99.90;;;;;;5008522;28;20075;-48
2023/12/23 11:02:31;;;;;;;1.27;0.70;;;8.30;99.90;;;;;;5010205;28;20434;-47
2023/12/23 11:05:01;;;;;;;1.42;0.70;;;8.30;99.90;;;;;;5006166;28;20525;-44
2023/12/23 11:07:31;;;;;;;0.90;0.70;;;8.30;99.90;;;;;;5012326;28;20085;-46
2023/12/23 11:10:01;;;;;;;2.22;0.70;;;8.40;99.90;;;;;;5008975;28;20053;-51
2023/12/23 11:12:29;;;;;;;0.63;0.60;;;8.40;99.90;;;;;;5011553;28;20474;-47
2023/12/23 11:15:00;;;;;;;1.17;0.70;;;8.40;99.90;;;;;;5016315;28;20072;-42
2023/12/23 11:17:28;;;;;;;0.63;0.60;;;8.40;99.90;;;;;;5009301;28;20057;-50
2023/12/23 11:20:00;;;;;;;1.60;0.60;;;8.30;99.90;;;;;;5015736;28;20438;-54
2023/12/23 11:22:38;;;;;;;1.13;0.60;;;8.40;99.90;;;;;;5018043;28;20095;-53
2023/12/23 11:25:38;;;;;;;0.60;0.60;;;8.40;99.90;;;;;;5010839;28;20045;-52
2023/12/23 11:28:09;;;;;;;0.63;0.60;;;8.30;99.90;;;;;;5013573;28;20144;-49
2023/12/23 11:30:51;;;;;;;0.60;0.60;;;8.30;99.90;;;;;;5016590;28;20132;-45
2023/12/23 11:33:20;;;;;;;0.60;0.60;;;8.20;99.90;;;;;;5008632;28;20041;-50
2023/12/23 11:35:48;;;;;;;1.65;0.70;;;8.20;99.90;;;;;;5019617;28;20077;-48
2023/12/23 11:38:15;;;;;;;0.73;0.50;;;8.20;99.90;;;;;;5008850;28;20108;-46
2023/12/23 11:40:43;;;;;;;1.02;0.63;;;8.10;99.90;;;;;;5015362;28;20131;-51
2023/12/23 11:43:10;;;;;;;1.65;0.70;;;8.10;99.90;;;;;;5016030;28;20146;-51
2023/12/23 11:45:38;;;;;;;1.15;0.70;;;8.00;99.90;;;;;;5014015;28;20128;-51
2023/12/23 11:48:07;;;;;;;0.70;0.63;;;8.00;99.90;;;;;;5006697;28;20129;-50
2023/12/23 11:50:34;;;;;;;1.60;0.70;;;8.00;99.90;;;;;;5001988;28;20104;-46
2023/12/23 11:53:01;;;;;;;1.15;0.50;;;8.00;99.90;;;;;;5015764;28;20056;-52
2023/12/23 11:55:28;;;;;;;1.33;0.70;;;8.00;99.90;;;;;;5014233;28;20050;-53
2023/12/23 11:57:55;;;;;;;0.55;0.52;;;8.00;99.90;;;;;;5015733;28;20085;-49
2023/12/23 12:00:22;;;;;;;0.85;0.60;;;8.00;99.90;;;;;;5011597;28;20096;-50
2023/12/23 12:02:49;;;;;;;0.77;0.60;;;8.00;99.90;;;;;;5017716;28;20153;-54
2023/12/23 12:05:16;;;;;;;1.33;0.70;;;8.00;99.90;;;;;;5004274;28;20075;-52
2023/12/23 12:07:44;;;;;;;1.15;0.50;;;8.00;99.90;;;;;;5016582;28;20121;-51
2023/12/23 12:10:13;;;;;;;0.50;0.50;;;7.90;99.90;;;;;;5013922;28;20163;-48
2023/12/23 12:12:40;;;;;;;2.10;0.70;;;7.90;99.90;;;;;;5008022;28;20053;-48
2023/12/23 12:15:07;;;;;;;0.55;0.50;;;7.90;99.90;;;;;;5003182;28;20056;-44
2023/12/23 12:17:34;;;;;;;1.05;0.60;;;8.00;99.90;;;;;;4999350;28;20050;-47
2023/12/23 12:20:02;;;;;;;1.65;0.80;;;8.00;99.90;;;;;;5005252;28;20043;-51
2023/12/23 12:22:31;;;;;;;0.50;0.50;;;8.00;99.90;;;;;;5013386;28;20048;-50
2023/12/23 12:24:58;;;;;;;0.73;0.50;;;8.00;99.90;;;;;;5015146;28;20041;-49
2023/12/23 12:27:25;;;;;;;0.88;0.50;;;8.10;99.90;;;;;;5015048;28;20060;-53
2023/12/23 12:29:53;;;;;;;1.13;0.70;;;8.20;99.90;;;;;;5014803;28;20053;-55
2023/12/23 12:32:22;;;;;;;2.08;0.70;;;8.20;99.90;;;;;;5009029;28;20065;-51
2023/12/23 12:34:49;;;;;;;1.02;0.80;;;8.20;99.90;;;;;;5008012;28;20045;-49
2023/12/23 12:37:16;;;;;;;0.90;0.60;;;8.20;99.90;;;;;;5008232;28;20034;-51
2023/12/23 12:39:44;;;;;;;1.42;0.80;;;8.30;99.90;;;;;;5015191;28;20132;-51
2023/12/23 12:42:12;;;;;;;1.42;0.80;;;8.20;99.90;;;;;;5008203;28;20089;-49
2023/12/23 12:44:40;;;;;;;0.90;0.65;;;8.20;99.90;;;;;;5019190;28;20073;-48
2023/12/23 12:47:07;;;;;;;1.10;0.68;;;8.20;99.90;;;;;;5006272;28;20473;-47
2023/12/23 12:49:41;;;;;;;0.60;0.47;;;8.20;99.90;;;;;;5015011;28;20127;-55
2023/12/23 12:52:20;;;;;;;4.72;0.60;;;8.20;99.90;;;;;;5008698;28;20136;-55
2023/12/23 12:54:47;;;;;;;1.17;0.50;;;8.20;99.90;;;;;;5016031;28;20065;-49
2023/12/23 12:57:14;;;;;;;0.50;0.50;;;8.20;99.90;;;;;;5001307;28;20136;-49
2023/12/23 12:59:42;;;;;;;0.40;0.40;;;8.20;99.90;;;;;;5006768;28;20068;-49